Norfolk, Virginia
Traffic Map
Current Weather Conditions
Norfolk, Virginia
Clear
Clear
13°
Feels Like: 13°
Wind Chill: 13° Ceiling: Unl
Heat Index: 13° Visibility: 10mi
Dew Point: Wind: 9mph
Humidity: 62% Direction: 340° (NNW)
Pressure: 29.96in Gusts: 18mph
Raw Report DataKORF 241151Z AUTO 34008G16KT 10SM CLR 13/06 A2996 RMK AO2 SLP145 T01330061 10150 20133 51012 TSNO
Traffic Incident Summary
Active as of:
Severity:
Category:
InformationThere was an issue retrieving the traffic information for this location. Please try a different location or try again shortly.
Advertisements
Track Severe Weather on mobile